Metar z połowy godziny Komunikat METAR ze strony awiacja.imgw.pl Metar Mil EPLY METAR EPLY 261100Z 28010KT 9999 BKN030 02/M01 Q1007 RMK 017 080 7/7=